Terminal Aerodrome Forecast
Issued by NWS

Home | Current Version | Previous Version | Text Only | Print | Product List | Glossary On
Versions: 1 2 3 4 5 6 7 8 9 10 11 12 13 14 15 16 17 18
000
FTUS43 KFGF 211900 AAA
TAFDVL
TAF AMD
KDVL 211940Z 2120/2218 05006KT P6SM BKN040
     FM220100 01007KT P6SM BKN015
     FM220800 36008KT P6SM OVC007
      AMD LTD TO CLD VIS AND WIND=

USA.gov is the U.S. government's official web portal to all federal, state and local government web resources and services.